Time;durP1;ratioP1;P1;durP2;ratioP2;P2;SDS_P1;SDS_P2;PMS_P1;PMS_P2;Temp;Humidity;BMP_temperature;BMP_pressure;BME280_temperature;BME280_humidity;BME280_pressure;Samples;Min_cycle;Max_cycle;Signal;HPM_P1;HPM_P2
2022/04/29 00:02:01;;;;;;;5.90;5.30;;;;;;;9.07;83.54;99131.66;4977668;28;20215;-70
2022/04/29 00:04:27;;;;;;;5.87;5.27;;;;;;;9.09;83.71;99138.44;4977356;28;20216;-71
2022/04/29 00:06:54;;;;;;;7.63;5.20;;;;;;;9.08;82.55;99139.44;4975500;28;20212;-71
2022/04/29 00:09:21;;;;;;;5.63;4.87;;;;;;;9.02;82.19;99129.56;4975734;28;20204;-70
2022/04/29 00:11:47;;;;;;;5.67;5.17;;;;;;;9.07;81.75;99118.41;4977550;28;20212;-71
2022/04/29 00:14:14;;;;;;;8.97;5.30;;;;;;;9.01;81.87;99121.78;4977421;28;20208;-70
2022/04/29 00:16:40;;;;;;;5.50;4.90;;;;;;;8.92;82.41;99118.38;4976976;28;20218;-70
2022/04/29 00:19:07;;;;;;;5.80;5.20;;;;;;;8.96;82.69;99118.88;4977073;28;20212;-70
2022/04/29 00:21:33;;;;;;;8.57;5.80;;;;;;;8.97;82.80;99120.50;4975890;28;20218;-71
2022/04/29 00:23:59;;;;;;;6.17;5.57;;;;;;;9.01;81.82;99119.94;4976940;28;20215;-71
2022/04/29 00:26:26;;;;;;;8.63;5.70;;;;;;;8.89;82.81;99120.59;4977750;28;20246;-70
2022/04/29 00:28:52;;;;;;;8.27;6.23;;;;;;;8.79;83.70;99114.75;4977035;28;20599;-71
2022/04/29 00:31:19;;;;;;;6.20;5.57;;;;;;;8.86;84.05;99113.00;4977111;28;20204;-71
2022/04/29 00:33:45;;;;;;;7.23;5.73;;;;;;;8.95;84.12;99122.50;4977084;28;20208;-70
2022/04/29 00:36:11;;;;;;;8.53;5.97;;;;;;;8.92;84.45;99118.38;4974835;28;20208;-70
2022/04/29 00:38:38;;;;;;;6.77;6.17;;;;;;;8.86;84.95;99103.22;4976888;28;20230;-70
2022/04/29 00:41:04;;;;;;;8.53;6.90;;;;;;;8.84;84.85;99099.09;4976915;28;20208;-71
2022/04/29 00:43:30;;;;;;;7.73;6.93;;;;;;;8.91;85.41;99097.38;4976914;28;20215;-70
2022/04/29 00:45:57;;;;;;;6.80;6.13;;;;;;;8.84;84.93;99092.00;4976876;28;20282;-70
2022/04/29 00:48:23;;;;;;;6.57;5.87;;;;;;;8.80;85.00;99095.16;4975709;28;20235;-71
2022/04/29 00:50:49;;;;;;;7.73;6.40;;;;;;;8.80;85.62;99087.22;4976478;28;20208;-70
2022/04/29 00:53:19;;;;;;;9.23;6.80;;;;;;;8.81;85.00;99091.50;4976697;28;20208;-71
2022/04/29 00:55:45;;;;;;;8.83;6.33;;;;;;;8.82;84.76;99086.03;4976737;28;20214;-70
2022/04/29 00:58:15;;;;;;;7.47;6.77;;;;;;;8.67;85.73;99093.16;4976573;28;20224;-70
2022/04/29 01:00:42;;;;;;;9.10;6.83;;;;;;;8.73;85.71;99104.88;4976575;28;20242;-70
2022/04/29 01:03:12;;;;;;;8.50;6.70;;;;;;;8.77;86.72;99108.78;4975255;28;20204;-71
2022/04/29 01:05:39;;;;;;;7.73;6.93;;;;;;;8.74;85.87;99106.50;4976803;28;20208;-71
2022/04/29 01:08:06;;;;;;;7.57;6.60;;;;;;;8.77;85.58;99104.31;4976378;28;20259;-71
2022/04/29 01:10:33;;;;;;;7.70;6.40;;;;;;;8.78;86.37;99091.91;4975549;28;20208;-71
2022/04/29 01:13:01;;;;;;;9.00;6.73;;;;;;;8.62;87.03;99092.88;4976432;28;20204;-71
2022/04/29 01:15:29;;;;;;;6.97;6.30;;;;;;;8.54;87.38;99085.00;4976359;28;20208;-70
2022/04/29 01:17:59;;;;;;;6.43;5.87;;;;;;;8.56;87.96;99079.53;4975095;28;20223;-70
2022/04/29 01:20:28;;;;;;;7.67;6.53;;;;;;;8.47;87.87;99073.47;4975762;28;20188;-70
2022/04/29 01:22:56;;;;;;;8.03;6.30;;;;;;;8.47;87.58;99065.53;4975525;28;20215;-71
2022/04/29 01:25:23;;;;;;;7.03;6.27;;;;;;;8.42;88.37;99067.09;4976165;28;20212;-70
2022/04/29 01:27:50;;;;;;;7.43;6.30;;;;;;;8.39;88.94;99073.56;4975994;28;20239;-70
2022/04/29 01:30:16;;;;;;;7.90;6.70;;;;;;;8.40;88.79;99061.97;4976104;28;20207;-71
2022/04/29 01:32:43;;;;;;;7.97;6.60;;;;;;;8.39;89.75;99062.13;4976036;28;20208;-71
2022/04/29 01:35:12;;;;;;;6.83;6.13;;;;;;;8.40;88.82;99055.81;4974328;28;20208;-71
2022/04/29 01:37:39;;;;;;;7.60;6.80;;;;;;;8.39;89.05;99062.13;4975592;28;20233;-70
2022/04/29 01:40:10;;;;;;;7.80;7.10;;;;;;;8.43;89.17;99052.81;4975928;28;20559;-70
2022/04/29 01:42:38;;;;;;;7.90;7.10;;;;;;;8.35;89.64;99066.16;4975871;28;20256;-70
2022/04/29 01:45:05;;;;;;;7.47;6.77;;;;;;;8.42;89.03;99062.59;4975811;28;20215;-70
2022/04/29 01:47:31;;;;;;;7.80;7.10;;;;;;;8.22;89.04;99071.22;4974630;28;20236;-70
2022/04/29 01:49:58;;;;;;;9.10;7.20;;;;;;;8.18;89.58;99080.50;4975423;28;20636;-71
2022/04/29 01:52:24;;;;;;;9.03;8.23;;;;;;;8.14;89.60;99080.03;4975623;28;20216;-70
2022/04/29 01:54:50;;;;;;;9.17;7.50;;;;;;;8.16;90.20;99077.22;4975603;28;20212;-71
2022/04/29 01:57:17;;;;;;;10.80;8.30;;;;;;;8.19;89.78;99066.28;4975403;28;20224;-71
2022/04/29 01:59:43;;;;;;;9.20;7.60;;;;;;;8.18;89.86;99069.91;4976012;28;20299;-70
2022/04/29 02:02:10;;;;;;;8.97;8.00;;;;;;;8.08;90.43;99074.63;4974282;28;20215;-70
2022/04/29 02:04:36;;;;;;;9.03;8.13;;;;;;;7.97;91.29;99067.13;4975383;28;20218;-71
2022/04/29 02:07:04;;;;;;;9.93;8.20;;;;;;;8.00;90.60;99072.06;4975359;28;20228;-70
2022/04/29 02:09:31;;;;;;;8.70;7.90;;;;;;;7.98;91.32;99066.97;4975313;28;20227;-70
2022/04/29 02:12:06;;;;;;;9.13;7.87;;;;;;;8.00;89.61;99064.94;4974979;28;20255;-71
2022/04/29 02:14:39;;;;;;;8.93;8.03;;;;;;;7.98;90.88;99068.78;4975583;28;20285;-70
2022/04/29 02:17:06;;;;;;;9.17;8.27;;;;;;;7.90;89.90;99056.44;4975194;28;20363;-70
2022/04/29 02:19:33;;;;;;;9.63;8.00;;;;;;;7.95;90.90;99061.16;4973175;28;20660;-70
2022/04/29 02:22:01;;;;;;;10.07;8.10;;;;;;;7.90;90.92;99061.72;4975128;28;20214;-70
2022/04/29 02:24:27;;;;;;;9.70;8.67;;;;;;;7.91;91.39;99063.38;4975157;28;20204;-70
2022/04/29 02:26:55;;;;;;;9.10;8.07;;;;;;;7.90;91.81;99053.78;4974741;28;20214;-70
2022/04/29 02:29:22;;;;;;;9.60;8.67;;;;;;;7.90;91.85;99052.94;4975012;28;20250;-71
2022/04/29 02:31:49;;;;;;;10.83;8.50;;;;;;;7.78;93.03;99054.38;4974753;28;20242;-70
2022/04/29 02:34:16;;;;;;;9.83;8.83;;;;;;;7.79;92.19;99051.53;4974763;28;20258;-71
2022/04/29 02:36:42;;;;;;;10.43;8.63;;;;;;;7.73;92.50;99046.13;4973331;28;20219;-70
2022/04/29 02:39:09;;;;;;;14.30;8.33;;;;;;;7.72;92.48;99039.19;4975017;28;20200;-70
2022/04/29 02:41:36;;;;;;;12.73;9.30;;;;;;;7.62;93.15;99044.72;4974902;28;20670;-71
2022/04/29 02:44:03;;;;;;;10.10;9.03;;;;;;;7.68;92.74;99043.19;4974931;28;20560;-70
2022/04/29 02:46:29;;;;;;;10.10;9.10;;;;;;;7.66;93.22;99042.53;4974621;28;20571;-71
2022/04/29 02:48:56;;;;;;;15.53;8.80;;;;;;;7.74;92.96;99045.94;4974692;28;20231;-71
2022/04/29 02:51:22;;;;;;;11.60;8.87;;;;;;;7.73;92.43;99039.00;4974817;28;20212;-71
2022/04/29 02:53:49;;;;;;;9.00;8.13;;;;;;;7.74;91.77;99039.84;4973826;28;20215;-70
2022/04/29 02:56:15;;;;;;;11.17;8.53;;;;;;;7.67;91.98;99038.91;4974739;28;20208;-70
2022/04/29 02:58:41;;;;;;;9.60;8.60;;;;;;;7.67;92.39;99037.09;4974696;28;20224;-70
2022/04/29 03:01:08;;;;;;;11.10;8.43;;;;;;;7.66;92.66;99042.53;4974749;28;20210;-70
2022/04/29 03:03:34;;;;;;;10.20;8.10;;;;;;;7.64;92.12;99033.97;4974715;28;20204;-71
2022/04/29 03:06:00;;;;;;;8.73;7.67;;;;;;;7.59;92.64;99031.00;4975478;28;20210;-70
2022/04/29 03:08:27;;;;;;;9.40;7.57;;;;;;;7.58;93.04;99032.00;4972847;28;20239;-70
2022/04/29 03:10:53;;;;;;;8.00;7.20;;;;;;;7.55;92.88;99027.09;4972412;28;20214;-70
2022/04/29 03:13:20;;;;;;;8.87;7.97;;;;;;;7.55;92.74;99035.03;4973314;28;20219;-71
2022/04/29 03:15:46;;;;;;;11.53;8.77;;;;;;;7.56;93.00;99026.09;4974477;28;20262;-70
2022/04/29 03:18:19;;;;;;;10.50;7.77;;;;;;;7.54;93.08;99028.06;4974452;28;20223;-71
2022/04/29 03:20:47;;;;;;;9.20;8.30;;;;;;;7.51;93.17;99023.16;4974388;28;20196;-70
2022/04/29 03:23:14;;;;;;;8.73;7.90;;;;;;;7.51;93.17;99025.78;4974105;28;20208;-70
2022/04/29 03:25:41;;;;;;;8.90;8.10;;;;;;;7.49;92.61;99019.84;4972241;28;20203;-71
2022/04/29 03:28:08;;;;;;;9.67;8.20;;;;;;;7.44;92.74;99020.38;4974311;28;20258;-72
2022/04/29 03:30:36;;;;;;;10.37;8.90;;;;;;;7.45;93.06;99022.03;4974000;28;20275;-69
2022/04/29 03:33:05;;;;;;;9.57;8.60;;;;;;;7.51;92.69;99009.91;4974258;28;20216;-69
2022/04/29 03:35:32;;;;;;;10.90;9.13;;;;;;;7.44;93.26;99015.09;4974219;28;20234;-70
2022/04/29 03:37:58;;;;;;;10.47;8.93;;;;;;;7.38;93.89;99021.06;4974316;28;20721;-70
2022/04/29 03:40:26;;;;;;;9.23;8.33;;;;;;;7.42;93.78;99010.97;4974292;28;20215;-69
2022/04/29 03:42:54;;;;;;;11.23;8.97;;;;;;;7.44;93.11;99006.31;4972476;28;20203;-70
2022/04/29 03:45:22;;;;;;;10.83;9.00;;;;;;;7.45;93.29;99005.31;4975738;28;20219;-70
2022/04/29 03:47:49;;;;;;;9.90;8.90;;;;;;;7.45;93.36;99002.66;4977836;28;20236;-69
2022/04/29 03:50:15;;;;;;;10.27;9.27;;;;;;;7.35;93.90;99005.56;4978576;28;20553;-69
2022/04/29 03:52:50;;;;;;;9.27;8.17;;;;;;;7.36;94.02;99006.38;4977404;28;20203;-69
2022/04/29 03:55:18;;;;;;;10.03;8.97;;;;;;;7.35;94.01;99007.38;4977697;28;20215;-69
2022/04/29 03:57:44;;;;;;;9.83;8.40;;;;;;;7.35;94.38;99008.22;4977701;28;20598;-69
2022/04/29 04:00:13;;;;;;;9.80;8.80;;;;;;;7.37;94.12;99010.69;4976744;28;20210;-69
2022/04/29 04:02:40;;;;;;;10.03;8.97;;;;;;;7.36;94.00;99014.31;4976509;28;20208;-69
2022/04/29 04:05:08;;;;;;;11.60;9.00;;;;;;;7.26;94.92;99011.06;4977499;28;20215;-69
2022/04/29 04:07:35;;;;;;;10.33;9.33;;;;;;;7.29;95.16;99010.72;4977448;28;20228;-69
2022/04/29 04:10:02;;;;;;;11.70;9.20;;;;;;;7.29;95.13;99013.38;4977504;28;20238;-69
2022/04/29 04:12:38;;;;;;;10.70;9.53;;;;;;;7.26;94.81;99016.34;4977377;28;20215;-70
2022/04/29 04:15:06;;;;;;;11.47;9.77;;;;;;;7.28;94.98;99015.19;4977390;28;20187;-70
2022/04/29 04:17:32;;;;;;;10.57;9.40;;;;;;;7.33;95.03;99014.69;4975226;28;20738;-69
2022/04/29 04:19:59;;;;;;;10.27;9.13;;;;;;;7.33;95.55;99023.41;4977823;28;20204;-69
2022/04/29 04:22:26;;;;;;;12.00;9.03;;;;;;;7.32;95.74;99026.22;4977085;28;20216;-69
2022/04/29 04:24:52;;;;;;;11.50;9.47;;;;;;;7.30;94.96;99021.13;4976999;28;20239;-70
2022/04/29 04:27:19;;;;;;;13.03;9.43;;;;;;;7.35;95.53;99023.25;4977087;28;20239;-69
2022/04/29 04:29:45;;;;;;;10.57;9.30;;;;;;;7.31;96.05;99024.59;4976648;28;20235;-69
2022/04/29 04:32:11;;;;;;;11.77;9.53;;;;;;;7.30;96.08;99025.59;4977017;28;20671;-69
2022/04/29 04:34:53;;;;;;;10.67;9.60;;;;;;;7.39;96.08;99029.84;4973629;28;20235;-70
2022/04/29 04:37:28;;;;;;;12.93;10.13;;;;;;;7.50;95.54;99035.53;4976823;28;20230;-69
2022/04/29 04:39:58;;;;;;;11.63;9.37;;;;;;;7.49;95.64;99047.13;4976627;28;20187;-70
2022/04/29 04:42:24;;;;;;;10.63;9.53;;;;;;;7.57;94.91;99040.97;4976184;28;20348;-70
2022/04/29 04:44:52;;;;;;;12.27;9.67;;;;;;;7.63;94.52;99051.66;4976270;28;20647;-70
2022/04/29 04:47:19;;;;;;;10.53;9.43;;;;;;;7.60;96.39;99046.72;4975975;28;20267;-69
2022/04/29 04:49:45;;;;;;;12.53;9.90;;;;;;;7.59;96.96;99047.72;4975165;28;20227;-69
2022/04/29 04:52:12;;;;;;;16.57;10.40;;;;;;;7.70;95.66;99051.78;4976385;28;20212;-70
2022/04/29 04:54:39;;;;;;;10.97;9.87;;;;;;;7.69;95.75;99052.78;4976593;28;20208;-69
2022/04/29 04:57:06;;;;;;;14.13;10.67;;;;;;;7.82;95.95;99045.91;4975997;28;20234;-70
2022/04/29 04:59:32;;;;;;;11.03;9.87;;;;;;;7.80;95.73;99050.56;4976452;28;20204;-69
2022/04/29 05:01:59;;;;;;;12.07;10.00;;;;;;;7.91;93.90;99036.88;4974906;28;20212;-69
2022/04/29 05:04:25;;;;;;;10.67;9.67;;;;;;;7.96;92.99;99054.91;4976031;28;20208;-69
2022/04/29 05:06:54;;;;;;;10.53;9.53;;;;;;;8.10;91.90;99040.88;4975131;28;20208;-70
2022/04/29 05:09:21;;;;;;;12.10;9.97;;;;;;;8.13;90.96;99041.34;4976189;28;20583;-70
2022/04/29 05:11:47;;;;;;;11.03;9.73;;;;;;;8.16;90.00;99051.56;4976207;28;20208;-70
2022/04/29 05:14:13;;;;;;;10.63;9.63;;;;;;;8.18;90.83;99049.56;4975611;28;20219;-69
2022/04/29 05:16:40;;;;;;;12.03;9.23;;;;;;;8.18;88.88;99049.56;4975565;28;20204;-70
2022/04/29 05:19:06;;;;;;;13.80;10.20;;;;;;;8.22;88.80;99053.53;4974399;28;20208;-69
2022/04/29 05:21:33;;;;;;;11.30;9.13;;;;;;;8.29;88.82;99061.59;4975226;28;20663;-69
2022/04/29 05:23:59;;;;;;;11.03;9.93;;;;;;;8.37;89.55;99053.56;4975002;28;20216;-70
2022/04/29 05:26:25;;;;;;;11.57;10.03;;;;;;;8.36;89.49;99054.53;4975267;28;20216;-70
2022/04/29 05:28:52;;;;;;;11.97;9.23;;;;;;;8.46;90.36;99061.22;4975192;28;20687;-72
2022/04/29 05:31:18;;;;;;;13.17;10.40;;;;;;;8.38;90.27;99071.09;4975435;28;20219;-72
2022/04/29 05:33:45;;;;;;;10.80;9.73;;;;;;;8.39;88.97;99065.63;4975142;28;20216;-72
2022/04/29 05:36:12;;;;;;;10.33;9.20;;;;;;;8.49;88.22;99068.00;4973983;28;20208;-69
2022/04/29 05:44:08;;;;;;;10.77;9.67;;;;;;;8.55;87.49;99076.03;4975223;28;20250;-69
2022/04/29 05:46:35;;;;;;;10.67;9.57;;;;;;;8.69;87.00;99071.78;4975081;28;20223;-70
2022/04/29 05:49:05;;;;;;;10.37;9.27;;;;;;;8.78;87.31;99074.13;4974630;28;20287;-69
2022/04/29 05:51:31;;;;;;;9.87;8.87;;;;;;;8.86;86.29;99071.41;4973960;28;20247;-69
2022/04/29 05:54:00;;;;;;;10.00;9.10;;;;;;;8.81;85.13;99072.94;4975238;28;20208;-69
2022/04/29 05:56:27;;;;;;;11.37;9.10;;;;;;;8.79;84.85;99081.06;4975063;28;20223;-70
2022/04/29 05:58:53;;;;;;;11.23;9.80;;;;;;;8.89;85.84;99078.16;4974773;28;20592;-70
2022/04/29 06:01:19;;;;;;;12.13;9.77;;;;;;;8.95;85.32;99078.25;4975391;28;20214;-70
2022/04/29 06:03:46;;;;;;;13.40;9.50;;;;;;;9.03;84.42;99079.97;4974866;28;20204;-70
2022/04/29 06:06:12;;;;;;;13.97;9.60;;;;;;;9.13;84.10;99078.69;4973183;28;20215;-70
2022/04/29 06:08:38;;;;;;;10.13;9.13;;;;;;;9.35;83.47;99076.91;4974705;28;20240;-70
2022/04/29 06:11:05;;;;;;;11.00;9.53;;;;;;;9.54;82.10;99074.50;4975147;28;20211;-70
2022/04/29 06:13:31;;;;;;;12.90;9.87;;;;;;;9.69;82.09;99077.91;4974730;28;20239;-70
2022/04/29 06:15:59;;;;;;;11.13;9.83;;;;;;;9.87;81.57;99077.50;4974632;28;20212;-70
2022/04/29 06:18:25;;;;;;;10.00;9.00;;;;;;;9.97;80.34;99080.66;4974366;28;20227;-70
2022/04/29 06:20:52;;;;;;;12.30;9.57;;;;;;;10.09;80.14;99079.19;4974446;28;20563;-70
2022/04/29 06:23:18;;;;;;;11.47;10.17;;;;;;;10.05;81.42;99081.38;4972758;28;20208;-70
2022/04/29 06:25:44;;;;;;;11.43;9.63;;;;;;;10.19;80.27;99082.31;4974721;28;20248;-71
2022/04/29 06:28:12;;;;;;;11.47;9.63;;;;;;;10.23;80.48;99078.28;4974741;28;20238;-71
2022/04/29 06:30:38;;;;;;;14.10;9.83;;;;;;;10.24;79.36;99082.56;4974473;28;20267;-71
2022/04/29 06:33:05;;;;;;;12.70;9.47;;;;;;;10.34;77.64;99083.06;4974908;28;20212;-71
2022/04/29 06:35:31;;;;;;;15.47;10.83;;;;;;;10.50;78.58;99090.75;4974348;28;20671;-71
2022/04/29 06:37:58;;;;;;;10.53;9.47;;;;;;;10.94;75.15;99091.25;4973267;28;20576;-71
2022/04/29 06:40:24;;;;;;;14.77;10.47;;;;;;;11.07;74.46;99085.19;4974738;28;20211;-71
2022/04/29 06:42:51;;;;;;;11.93;10.30;;;;;;;11.39;72.46;99087.19;4974370;28;20212;-71
2022/04/29 06:45:17;;;;;;;13.20;9.83;;;;;;;11.16;72.68;99092.78;4974519;28;20294;-71
2022/04/29 06:47:43;;;;;;;12.77;10.60;;;;;;;11.27;73.94;99089.59;4974407;28;20236;-71
2022/04/29 06:50:10;;;;;;;13.17;9.57;;;;;;;11.57;70.68;99092.78;4974568;28;20223;-71
2022/04/29 06:52:37;;;;;;;14.17;10.23;;;;;;;11.63;71.78;99092.84;4974494;28;20236;-71
2022/04/29 06:55:04;;;;;;;12.70;9.73;;;;;;;11.68;72.26;99076.22;4973010;28;20211;-71
2022/04/29 06:57:31;;;;;;;11.87;10.57;;;;;;;12.00;71.17;99078.97;4974289;28;20240;-71
2022/04/29 06:59:58;;;;;;;11.57;9.03;;;;;;;12.30;68.11;99085.53;4974204;28;20209;-71
2022/04/29 07:02:24;;;;;;;13.93;10.97;;;;;;;12.23;67.38;99082.06;4974637;28;20236;-71
2022/04/29 07:04:53;;;;;;;11.07;9.90;;;;;;;12.39;68.17;99080.84;4974009;28;20214;-71
2022/04/29 07:07:19;;;;;;;13.43;10.50;;;;;;;12.54;68.42;99079.59;4974372;28;20228;-71
2022/04/29 07:09:46;;;;;;;14.73;9.90;;;;;;;12.25;66.04;99074.69;4974441;28;20236;-71
2022/04/29 07:12:12;;;;;;;13.60;9.87;;;;;;;12.26;66.69;99073.63;4972722;28;20211;-71
2022/04/29 07:14:38;;;;;;;12.67;9.47;;;;;;;12.04;65.62;99077.56;4974134;28;20210;-71
2022/04/29 07:17:07;;;;;;;15.43;10.47;;;;;;;12.29;66.16;99070.56;4974238;28;20234;-71
2022/04/29 07:19:34;;;;;;;11.13;9.87;;;;;;;12.22;67.51;99075.09;4974769;28;20670;-71
2022/04/29 07:22:00;;;;;;;14.67;10.23;;;;;;;12.32;66.85;99064.00;4978193;28;20640;-71
2022/04/29 07:24:27;;;;;;;14.33;10.17;;;;;;;12.63;64.96;99061.53;4977977;28;20234;-71
2022/04/29 07:26:53;;;;;;;12.73;10.10;;;;;;;12.41;66.02;99052.94;4977141;28;20569;-71
2022/04/29 07:29:19;;;;;;;10.77;9.67;;;;;;;12.44;64.72;99057.03;4977238;28;20231;-71
2022/04/29 07:31:46;;;;;;;12.07;9.80;;;;;;;12.73;62.43;99054.75;4978019;28;20214;-71
2022/04/29 07:34:12;;;;;;;11.03;9.27;;;;;;;12.80;63.06;99052.88;4977902;28;20219;-71
2022/04/29 07:42:03;;;;;;;12.80;9.77;;;;;;;13.16;60.66;99044.41;4955073;28;20702;-71
2022/04/29 07:44:29;;;;;;;14.60;9.67;;;;;;;13.15;61.16;99043.56;4978115;28;20208;-71
2022/04/29 07:46:55;;;;;;;9.60;8.60;;;;;;;13.51;59.84;99046.47;4977356;28;20219;-71
2022/04/29 07:49:22;;;;;;;10.47;8.63;;;;;;;13.23;59.02;99053.19;4977366;28;20702;-71
2022/04/29 07:51:49;;;;;;;12.90;8.87;;;;;;;13.39;57.43;99050.84;4977539;28;20594;-71
2022/04/29 07:54:15;;;;;;;9.20;7.80;;;;;;;13.37;58.29;99047.59;4977309;28;20687;-71
2022/04/29 07:56:41;;;;;;;10.73;8.53;;;;;;;13.19;57.59;99063.47;4977149;28;20694;-71
2022/04/29 07:59:08;;;;;;;10.97;8.60;;;;;;;13.33;57.83;99048.19;4975930;28;20203;-71
2022/04/29 08:01:36;;;;;;;10.90;8.33;;;;;;;13.04;59.80;99044.22;4977510;28;20204;-71
2022/04/29 08:04:02;;;;;;;9.40;7.80;;;;;;;12.94;59.54;99046.47;4977544;28;20208;-71
2022/04/29 08:06:29;;;;;;;11.07;7.47;;;;;;;12.89;58.06;99040.13;4977221;28;20261;-71
2022/04/29 08:08:55;;;;;;;9.03;8.10;;;;;;;12.80;61.48;99044.88;4977155;28;20238;-71
2022/04/29 08:11:22;;;;;;;9.07;7.90;;;;;;;12.74;61.59;99051.03;4977653;28;20215;-71
2022/04/29 08:13:49;;;;;;;8.60;7.70;;;;;;;12.71;60.41;99054.13;4977276;28;20618;-71
2022/04/29 08:16:16;;;;;;;8.30;7.30;;;;;;;12.77;60.93;99050.63;4975133;28;20644;-71
2022/04/29 08:18:43;;;;;;;11.80;7.47;;;;;;;12.87;59.85;99048.34;4977286;28;20232;-71
2022/04/29 08:21:09;;;;;;;12.37;7.90;;;;;;;13.22;59.04;99044.38;4977326;28;20204;-71
2022/04/29 08:23:36;;;;;;;8.67;7.87;;;;;;;13.48;57.67;99051.44;4977150;28;20607;-71
2022/04/29 08:26:02;;;;;;;10.83;7.77;;;;;;;13.81;59.06;99046.72;4975493;28;20204;-71
2022/04/29 08:28:29;;;;;;;9.27;7.53;;;;;;;13.97;55.04;99052.38;4977017;28;20236;-71
2022/04/29 08:30:55;;;;;;;8.37;7.47;;;;;;;14.09;55.93;99050.66;4976070;28;20234;-72
2022/04/29 08:33:24;;;;;;;8.23;7.33;;;;;;;13.99;53.38;99050.31;4977040;28;20210;-71
2022/04/29 08:35:51;;;;;;;9.40;7.37;;;;;;;14.34;53.24;99045.34;4977019;28;20208;-71
2022/04/29 08:38:19;;;;;;;8.70;7.20;;;;;;;14.05;51.65;99057.47;4976630;28;20319;-72
2022/04/29 08:40:46;;;;;;;9.83;6.50;;;;;;;14.42;52.24;99045.88;4975109;28;20211;-71
2022/04/29 08:43:14;;;;;;;6.80;5.90;;;;;;;15.02;52.05;99046.94;4975697;28;20212;-72
2022/04/29 08:45:42;;;;;;;7.83;6.53;;;;;;;14.93;50.82;99035.69;4976477;28;20208;-72
2022/04/29 08:48:09;;;;;;;8.10;6.90;;;;;;;15.01;51.86;99045.31;4976483;28;20267;-72
2022/04/29 08:50:36;;;;;;;8.60;6.63;;;;;;;15.36;52.76;99036.44;4976620;28;20258;-72
2022/04/29 08:53:03;;;;;;;7.40;6.33;;;;;;;15.62;50.46;99038.78;4976652;28;20223;-72
2022/04/29 09:01:04;;;;;;;7.07;6.20;;;;;;;15.72;52.31;99033.69;4976370;28;20172;-72
2022/04/29 09:03:31;;;;;;;7.27;6.57;;;;;;;16.14;49.67;99024.56;4977018;28;20192;-72
2022/04/29 09:05:58;;;;;;;8.37;6.83;;;;;;;16.18;50.10;99017.72;4976161;28;20689;-72
2022/04/29 09:08:25;;;;;;;9.53;6.70;;;;;;;16.04;49.85;99018.97;4976293;28;20235;-71
2022/04/29 09:11:02;;;;;;;8.37;7.03;;;;;;;16.13;49.27;99014.91;4975301;28;20228;-72
2022/04/29 09:13:30;;;;;;;7.60;5.53;;;;;;;16.31;47.11;99011.31;4976302;28;20636;-72
2022/04/29 09:15:59;;;;;;;9.10;5.90;;;;;;;16.38;47.07;99012.81;4976111;28;20212;-71
2022/04/29 09:18:42;;;;;;;7.43;5.90;;;;;;;16.55;46.73;99007.63;4976100;28;20298;-72
2022/04/29 09:21:26;;;;;;;6.73;5.77;;;;;;;16.48;45.54;98998.84;4976110;28;20208;-72
2022/04/29 09:24:07;;;;;;;6.70;5.97;;;;;;;16.98;44.71;99008.84;4976627;28;20188;-72
2022/04/29 09:26:35;;;;;;;8.90;6.00;;;;;;;17.17;47.20;98996.06;4976074;28;20192;-72
2022/04/29 09:29:16;;;;;;;7.40;5.67;;;;;;;17.53;44.37;98985.81;4974221;28;20224;-72
2022/04/29 09:31:56;;;;;;;6.30;5.50;;;;;;;17.27;40.62;98991.72;4974779;28;20575;-72
2022/04/29 09:34:23;;;;;;;7.43;5.53;;;;;;;17.51;42.98;98989.78;4976052;28;20192;-72
2022/04/29 09:36:51;;;;;;;7.30;5.87;;;;;;;17.43;43.08;98985.63;4975746;28;20235;-72
2022/04/29 09:39:30;;;;;;;6.77;5.83;;;;;;;17.31;43.97;98984.81;4975713;28;20214;-72
2022/04/29 09:42:07;;;;;;;7.37;5.67;;;;;;;17.56;42.15;98982.63;4974922;28;20191;-71
2022/04/29 09:44:38;;;;;;;6.87;5.43;;;;;;;17.57;45.08;98984.28;4973987;28;20566;-72
2022/04/29 09:47:16;;;;;;;6.30;5.50;;;;;;;17.24;43.20;98975.25;4975399;28;20251;-72
2022/04/29 09:49:53;;;;;;;4.83;4.43;;;;;;;17.71;40.48;98966.78;4975324;28;20214;-72
2022/04/29 09:52:20;;;;;;;5.80;4.80;;;;;;;17.77;41.92;98964.97;4976038;28;20553;-72
2022/04/29 09:54:47;;;;;;;6.77;4.93;;;;;;;17.75;42.61;98961.72;4975520;28;20215;-72
2022/04/29 09:57:23;;;;;;;5.00;4.60;;;;;;;17.83;41.88;98964.03;4975410;28;20224;-72
2022/04/29 09:59:51;;;;;;;5.87;5.03;;;;;;;17.59;41.01;98949.06;4974650;28;20298;-72
2022/04/29 10:02:28;;;;;;;4.60;4.20;;;;;;;17.79;43.43;98958.31;4974647;28;20686;-72
2022/04/29 10:04:56;;;;;;;5.40;4.57;;;;;;;17.78;40.88;98948.59;4974939;28;20661;-72
2022/04/29 10:07:25;;;;;;;5.33;4.10;;;;;;;17.54;41.37;98954.34;4974989;28;20232;-72
2022/04/29 10:09:53;;;;;;;6.57;4.17;;;;;;;17.55;41.08;98954.09;4975794;28;20559;-72
2022/04/29 10:12:21;;;;;;;6.40;4.53;;;;;;;17.32;40.89;98945.31;4974928;28;20208;-72
2022/04/29 10:14:58;;;;;;;6.87;4.00;;;;;;;17.29;40.17;98949.28;4973648;28;20200;-72
2022/04/29 10:23:09;;;;;;;5.03;3.60;;;;;;;17.96;42.74;98932.22;4974713;28;20179;-72
2022/04/29 10:25:39;;;;;;;4.33;3.83;;;;;;;18.14;40.02;98941.94;4974600;28;20211;-72
2022/04/29 10:28:07;;;;;;;4.53;3.60;;;;;;;18.26;40.78;98938.09;4974835;28;20227;-72
2022/04/29 10:30:36;;;;;;;3.70;3.40;;;;;;;18.47;38.79;98928.44;4973179;28;20234;-72
2022/04/29 10:33:03;;;;;;;3.43;3.13;;;;;;;18.29;40.19;98932.22;4974812;28;20234;-72
2022/04/29 10:35:42;;;;;;;3.30;3.00;;;;;;;18.25;39.44;98935.63;4974339;28;20212;-72
2022/04/29 10:38:35;;;;;;;3.83;3.07;;;;;;;18.29;38.14;98929.53;4974843;28;20310;-72
2022/04/29 10:41:07;;;;;;;3.63;2.70;;;;;;;18.48;37.25;98928.22;4974777;28;20284;-72
2022/04/29 10:44:00;;;;;;;5.37;3.10;;;;;;;18.64;37.53;98921.94;4973293;28;20211;-72
2022/04/29 10:46:36;;;;;;;3.17;2.90;;;;;;;18.64;37.70;98929.22;4965601;28;20578;-72
2022/04/29 10:49:28;;;;;;;3.90;3.10;;;;;;;18.59;37.19;98918.41;4974527;28;20238;-72
2022/04/29 10:51:56;;;;;;;3.30;3.10;;;;;;;18.84;37.25;98918.72;4974933;28;20203;-72
2022/04/29 10:54:34;;;;;;;3.30;3.00;;;;;;;19.19;37.62;98905.66;4974071;28;20212;-72
2022/04/29 10:57:02;;;;;;;4.07;2.87;;;;;;;19.21;35.32;98914.28;4974534;28;20228;-72
2022/04/29 10:59:48;;;;;;;3.37;3.10;;;;;;;19.23;34.98;98907.59;4972261;28;20212;-72
2022/04/29 11:02:30;;;;;;;4.50;3.20;;;;;;;19.14;35.66;98901.00;4973654;28;20551;-72
2022/04/29 11:04:59;;;;;;;4.07;2.80;;;;;;;18.96;35.62;98900.53;4974134;28;20640;-72
2022/04/29 11:07:38;;;;;;;3.23;2.93;;;;;;;19.08;35.37;98901.19;4974419;28;20234;-72
2022/04/29 11:10:07;;;;;;;4.03;2.90;;;;;;;19.53;36.78;98893.59;4974424;28;20212;-72
2022/04/29 11:12:36;;;;;;;2.87;2.57;;;;;;;19.42;33.63;98895.38;4973323;28;20215;-72
2022/04/29 11:15:10;;;;;;;4.90;3.13;;;;;;;19.25;32.09;98897.41;4971632;28;20210;-72
2022/04/29 11:17:39;;;;;;;3.53;2.80;;;;;;;19.00;33.89;98891.69;4974282;28;20227;-72
2022/04/29 11:20:21;;;;;;;3.90;3.13;;;;;;;18.93;33.82;98884.88;4974215;28;20212;-72
2022/04/29 11:25:58;;;;;;;4.90;2.80;;;;;;;19.33;32.97;98886.16;4973645;28;20262;-70
2022/04/29 11:28:26;;;;;;;3.53;2.70;;;;;;;19.23;35.62;98882.53;4970869;28;20223;-70
2022/04/29 11:31:06;;;;;;;3.50;2.40;;;;;;;19.44;34.68;98882.47;4973281;28;20227;-70
2022/04/29 11:33:33;;;;;;;3.30;3.00;;;;;;;19.30;33.34;98883.97;4972153;28;20210;-70
2022/04/29 11:36:09;;;;;;;3.37;2.70;;;;;;;19.14;33.62;98881.34;4974079;28;20216;-70
2022/04/29 11:38:47;;;;;;;3.27;2.97;;;;;;;18.84;34.35;98881.81;4974046;28;20232;-70
2022/04/29 11:41:21;;;;;;;4.67;2.60;;;;;;;19.14;35.46;98868.66;4973505;28;20219;-72
2022/04/29 11:43:49;;;;;;;2.90;2.60;;;;;;;19.15;34.22;98873.00;4974093;28;20225;-70
2022/04/29 11:46:16;;;;;;;5.03;2.60;;;;;;;18.72;33.75;98870.34;4974734;28;20239;-70
2022/04/29 11:48:55;;;;;;;5.03;2.67;;;;;;;18.91;35.54;98870.84;4972437;28;20251;-70
2022/04/29 11:51:22;;;;;;;4.20;2.37;;;;;;;19.02;33.51;98868.00;4973887;28;20259;-71
2022/04/29 11:53:58;;;;;;;3.80;2.70;;;;;;;19.23;34.59;98867.16;4973672;28;20327;-71
2022/04/29 11:56:35;;;;;;;3.43;2.40;;;;;;;18.93;34.30;98857.91;4974155;28;20203;-70
2022/04/29 11:59:04;;;;;;;2.63;2.43;;;;;;;19.08;36.40;98861.59;4973915;28;20235;-71
2022/04/29 12:01:31;;;;;;;2.30;2.20;;;;;;;18.71;33.71;98863.34;4973581;28;20621;-70
2022/04/29 12:03:58;;;;;;;3.07;2.40;;;;;;;18.62;34.11;98854.06;4973493;28;20210;-71
2022/04/29 12:06:24;;;;;;;2.97;2.37;;;;;;;18.76;34.40;98846.41;4975652;28;20208;-71